Time;durP1;ratioP1;P1;durP2;ratioP2;P2;SDS_P1;SDS_P2;PMS_P1;PMS_P2;Temp;Humidity;BMP_temperature;BMP_pressure;BME280_temperature;BME280_humidity;BME280_pressure;Samples;Min_cycle;Max_cycle;Signal;HPM_P1;HPM_P2
2023/01/28 00:02:22;;;;;;;;;;;;;;;;;;5104247;28;19905;-78
2023/01/28 00:04:48;;;;;;;;;;;;;;;;;;5102164;28;19915;-78
2023/01/28 00:07:14;;;;;;;;;;;;;;;;;;5103446;28;19912;-78
2023/01/28 00:09:40;;;;;;;;;;;;;;;;;;5102770;28;19915;-77
2023/01/28 00:12:06;;;;;;;;;;;;;;;;;;5103036;28;19908;-79
2023/01/28 00:14:32;;;;;;;;;;;;;;;;;;5101947;28;19955;-76
2023/01/28 00:16:58;;;;;;;;;;;;;;;;;;5102107;28;19916;-77
2023/01/28 00:19:24;;;;;;;;;;;;;;;;;;5102089;28;19908;-76
2023/01/28 00:21:50;;;;;;;;;;;;;;;;;;5102432;28;19908;-78
2023/01/28 00:24:15;;;;;;;;;;;;;;;;;;5101963;28;19930;-77
2023/01/28 00:26:42;;;;;;;;;;;;;;;;;;5101618;28;19912;-76
2023/01/28 00:29:08;;;;;;;;;;;;;;;;;;5101371;28;19966;-78
2023/01/28 00:31:34;;;;;;;;;;;;;;;;;;5101836;28;19908;-77
2023/01/28 00:34:00;;;;;;;;;;;;;;;;;;5102537;28;19930;-78
2023/01/28 00:36:26;;;;;;;;;;;;;;;;;;5100974;28;19908;-78
2023/01/28 00:38:52;;;;;;;;;;;;;;;;;;5098855;28;19908;-77
2023/01/28 00:41:20;;;;;;;;;;;;;;;;;;5102406;28;19911;-77
2023/01/28 00:43:46;;;;;;;;;;;;;;;;;;5102776;28;19915;-79
2023/01/28 00:46:15;;;;;;;;;;;;;;;;;;5100947;28;19916;-78
2023/01/28 00:48:41;;;;;;;;;;;;;;;;;;5100916;28;19930;-78
2023/01/28 00:51:07;;;;;;;;;;;;;;;;;;5101332;28;19915;-77
2023/01/28 00:53:34;;;;;;;;;;;;;;;;;;5101710;28;19908;-78
2023/01/28 00:56:00;;;;;;;;;;;;;;;;;;5102674;28;20376;-75
2023/01/28 00:58:26;;;;;;;;;;;;;;;;;;5100750;28;19982;-78
2023/01/28 01:00:52;;;;;;;;;;;;;;;;;;5101375;28;20014;-78
2023/01/28 01:03:18;;;;;;;;;;;;;;;;;;5101260;28;20287;-76
2023/01/28 01:05:44;;;;;;;;;;;;;;;;;;5101795;28;19915;-78
2023/01/28 01:08:10;;;;;;;;;;;;;;;;;;5100840;28;19912;-76
2023/01/28 01:10:36;;;;;;;;;;;;;;;;;;5101948;28;19960;-79
2023/01/28 01:13:02;;;;;;;;;;;;;;;;;;5101284;28;19908;-78
2023/01/28 01:15:27;;;;;;;;;;;;;;;;;;5101215;28;19915;-78
2023/01/28 01:17:53;;;;;;;;;;;;;;;;;;5100238;28;19908;-77
2023/01/28 01:20:19;;;;;;;;;;;;;;;;;;5102337;28;19912;-77
2023/01/28 01:22:45;;;;;;;;;;;;;;;;;;5101480;28;19919;-78
2023/01/28 01:25:11;;;;;;;;;;;;;;;;;;5101631;28;19908;-78
2023/01/28 01:27:37;;;;;;;;;;;;;;;;;;5100212;28;19923;-80
2023/01/28 01:30:03;;;;;;;;;;;;;;;;;;5101080;28;20376;-78
2023/01/28 01:32:29;;;;;;;;;;;;;;;;;;5100673;28;19908;-78
2023/01/28 01:34:55;;;;;;;;;;;;;;;;;;5101665;28;19915;-77
2023/01/28 01:37:20;;;;;;;;;;;;;;;;;;5101780;28;19944;-78
2023/01/28 01:39:46;;;;;;;;;;;;;;;;;;5099857;28;19983;-78
2023/01/28 01:42:12;;;;;;;;;;;;;;;;;;5101611;28;19921;-79
2023/01/28 01:44:38;;;;;;;;;;;;;;;;;;5099028;28;19908;-78
2023/01/28 01:47:04;;;;;;;;;;;;;;;;;;5099758;28;19912;-78
2023/01/28 01:49:30;;;;;;;;;;;;;;;;;;5100293;28;19912;-76
2023/01/28 01:51:56;;;;;;;;;;;;;;;;;;5101690;28;19962;-77
2023/01/28 01:54:22;;;;;;;;;;;;;;;;;;5100851;28;19908;-78
2023/01/28 01:56:48;;;;;;;;;;;;;;;;;;5101063;28;19908;-78
2023/01/28 01:59:14;;;;;;;;;;;;;;;;;;5099134;28;19916;-78
2023/01/28 02:01:40;;;;;;;;;;;;;;;;;;5101389;28;20376;-78
2023/01/28 02:04:06;;;;;;;;;;;;;;;;;;5100066;28;19908;-79
2023/01/28 02:06:32;;;;;;;;;;;;;;;;;;5100068;28;19912;-80
2023/01/28 02:08:58;;;;;;;;;;;;;;;;;;5099398;28;19930;-78
2023/01/28 02:11:24;;;;;;;;;;;;;;;;;;5101534;28;20323;-78
2023/01/28 02:13:50;;;;;;;;;;;;;;;;;;5101009;28;19916;-78
2023/01/28 02:16:15;;;;;;;;;;;;;;;;;;5099318;28;19912;-77
2023/01/28 02:18:41;;;;;;;;;;;;;;;;;;5099570;28;20377;-77
2023/01/28 02:21:07;;;;;;;;;;;;;;;;;;5099815;28;19922;-78
2023/01/28 02:23:33;;;;;;;;;;;;;;;;;;5099690;28;19911;-77
2023/01/28 02:25:59;;;;;;;;;;;;;;;;;;5099510;28;19999;-79
2023/01/28 02:28:25;;;;;;;;;;;;;;;;;;5098460;28;19939;-79
2023/01/28 02:30:51;;;;;;;;;;;;;;;;;;5099395;28;19912;-79
2023/01/28 02:33:17;;;;;;;;;;;;;;;;;;5100304;28;19908;-77
2023/01/28 02:35:43;;;;;;;;;;;;;;;;;;5099418;28;19963;-78
2023/01/28 02:38:08;;;;;;;;;;;;;;;;;;5099432;28;20008;-78
2023/01/28 02:41:00;;;;;;;;;;;;;;;;;;5099672;28;19914;-78
2023/01/28 02:43:20;;;;;;;;;;;;;;;;;;5101336;28;19915;-79
2023/01/28 02:48:31;;;;;;;;;;;;;;;;;;5100484;28;19919;-78
2023/01/28 02:50:57;;;;;;;;;;;;;;;;;;5097826;28;19909;-78
2023/01/28 02:53:42;;;;;;;;;;;;;;;;;;5098608;28;19915;-77
2023/01/28 02:56:08;;;;;;;;;;;;;;;;;;5104890;28;19915;-78
2023/01/28 02:58:34;;;;;;;;;;;;;;;;;;5104652;28;19972;-79
2023/01/28 03:01:01;;;;;;;;;;;;;;;;;;5104939;28;20410;-77
2023/01/28 03:03:26;;;;;;;;;;;;;;;;;;5102716;28;20280;-79
2023/01/28 03:06:13;;;;;;;;;;;;;;;;;;5103950;28;19915;-79
2023/01/28 03:38:51;;;;;;;;;;;;;;;;;;5100188;28;19916;-76
2023/01/28 03:41:17;;;;;;;;;;;;;;;;;;5100808;28;19908;-78
2023/01/28 03:43:44;;;;;;;;;;;;;;;;;;5101529;28;19908;-79
2023/01/28 03:46:10;;;;;;;;;;;;;;;;;;5099597;28;20003;-78
2023/01/28 03:48:36;;;;;;;;;;;;;;;;;;5097342;28;19964;-79
2023/01/28 03:51:01;;;;;;;;;;;;;;;;;;5095564;28;19908;-78
2023/01/28 03:53:27;;;;;;;;;;;;;;;;;;5100547;28;19908;-77
2023/01/28 03:55:53;;;;;;;;;;;;;;;;;;5098232;28;19908;-78
2023/01/28 03:58:19;;;;;;;;;;;;;;;;;;5097579;28;19915;-81
2023/01/28 04:00:45;;;;;;;;;;;;;;;;;;5098787;28;20049;-78
2023/01/28 04:03:16;;;;;;;;;;;;;;;;;;5098550;28;20362;-78
2023/01/28 04:05:42;;;;;;;;;;;;;;;;;;5099966;28;19912;-78
2023/01/28 04:08:08;;;;;;;;;;;;;;;;;;5100581;28;19918;-78
2023/01/28 04:10:34;;;;;;;;;;;;;;;;;;5102656;28;19908;-78
2023/01/28 04:13:00;;;;;;;;;;;;;;;;;;5103188;28;19915;-78
2023/01/28 04:15:26;;;;;;;;;;;;;;;;;;5102087;28;19908;-79
2023/01/28 04:17:51;;;;;;;;;;;;;;;;;;5102470;28;19915;-78
2023/01/28 04:20:17;;;;;;;;;;;;;;;;;;5103030;28;20416;-78
2023/01/28 04:22:43;;;;;;;;;;;;;;;;;;5102433;28;19908;-77
2023/01/28 04:25:09;;;;;;;;;;;;;;;;;;5103407;28;20006;-77
2023/01/28 04:27:35;;;;;;;;;;;;;;;;;;5101999;28;19966;-77
2023/01/28 04:30:01;;;;;;;;;;;;;;;;;;5102923;28;19919;-78
2023/01/28 04:32:27;;;;;;;;;;;;;;;;;;5102411;28;19915;-79
2023/01/28 04:34:53;;;;;;;;;;;;;;;;;;5101914;28;19912;-78
2023/01/28 04:37:19;;;;;;;;;;;;;;;;;;5101971;28;19908;-78
2023/01/28 04:39:45;;;;;;;;;;;;;;;;;;5103461;28;19919;-76
2023/01/28 04:42:11;;;;;;;;;;;;;;;;;;5103772;28;19908;-78
2023/01/28 04:44:37;;;;;;;;;;;;;;;;;;5101553;28;19908;-77
2023/01/28 04:47:02;;;;;;;;;;;;;;;;;;5103515;28;20003;-78
2023/01/28 04:49:28;;;;;;;;;;;;;;;;;;5100759;28;19914;-76
2023/01/28 04:51:54;;;;;;;;;;;;;;;;;;5102189;28;20257;-78
2023/01/28 04:54:20;;;;;;;;;;;;;;;;;;5102688;28;19908;-76
2023/01/28 04:56:46;;;;;;;;;;;;;;;;;;5101279;28;20006;-78
2023/01/28 04:59:12;;;;;;;;;;;;;;;;;;5101288;28;20485;-78
2023/01/28 05:01:38;;;;;;;;;;;;;;;;;;5101651;28;19909;-78
2023/01/28 05:04:04;;;;;;;;;;;;;;;;;;5102992;28;19908;-77
2023/01/28 05:06:30;;;;;;;;;;;;;;;;;;5102115;28;19916;-76
2023/01/28 05:08:56;;;;;;;;;;;;;;;;;;5101161;28;19908;-79
2023/01/28 05:11:22;;;;;;;;;;;;;;;;;;5102205;28;20406;-79
2023/01/28 05:13:48;;;;;;;;;;;;;;;;;;5102080;28;19956;-77
2023/01/28 05:16:14;;;;;;;;;;;;;;;;;;5101550;28;20006;-78
2023/01/28 05:18:40;;;;;;;;;;;;;;;;;;5102389;28;19908;-76
2023/01/28 05:21:06;;;;;;;;;;;;;;;;;;5103003;28;19908;-78
2023/01/28 05:23:32;;;;;;;;;;;;;;;;;;5102044;28;19914;-78
2023/01/28 05:25:58;;;;;;;;;;;;;;;;;;5102812;28;19915;-78
2023/01/28 05:28:24;;;;;;;;;;;;;;;;;;5101049;28;19951;-76
2023/01/28 05:30:50;;;;;;;;;;;;;;;;;;5102101;28;19949;-78
2023/01/28 05:33:16;;;;;;;;;;;;;;;;;;5101679;28;20050;-77
2023/01/28 05:35:41;;;;;;;;;;;;;;;;;;5102807;28;19909;-79
2023/01/28 05:38:07;;;;;;;;;;;;;;;;;;5102600;28;20280;-77
2023/01/28 05:40:33;;;;;;;;;;;;;;;;;;5101089;28;19919;-79
2023/01/28 05:42:59;;;;;;;;;;;;;;;;;;5100536;28;19908;-78
2023/01/28 05:45:25;;;;;;;;;;;;;;;;;;5100543;28;19919;-76
2023/01/28 05:47:51;;;;;;;;;;;;;;;;;;5101597;28;19923;-78
2023/01/28 05:50:17;;;;;;;;;;;;;;;;;;5099919;28;19908;-77
2023/01/28 05:52:43;;;;;;;;;;;;;;;;;;5101237;28;20292;-77
2023/01/28 05:55:09;;;;;;;;;;;;;;;;;;5100269;28;19916;-78
2023/01/28 05:57:35;;;;;;;;;;;;;;;;;;5101316;28;20279;-77
2023/01/28 06:00:00;;;;;;;;;;;;;;;;;;5100897;28;20007;-77
2023/01/28 06:02:26;;;;;;;;;;;;;;;;;;5101920;28;19908;-76
2023/01/28 06:04:52;;;;;;;;;;;;;;;;;;5100559;28;19929;-77
2023/01/28 06:07:19;;;;;;;;;;;;;;;;;;5100859;28;19913;-78
2023/01/28 06:09:45;;;;;;;;;;;;;;;;;;5078457;28;19909;-78
2023/01/28 06:12:10;;;;;;;;;;;;;;;;;;5080032;28;19947;-76
2023/01/28 06:14:36;;;;;;;;;;;;;;;;;;5079987;28;19916;-78
2023/01/28 06:17:02;;;;;;;;;;;;;;;;;;5079213;28;20233;-78
2023/01/28 06:19:28;;;;;;;;;;;;;;;;;;5080121;28;19951;-80
2023/01/28 06:21:54;;;;;;;;;;;;;;;;;;5078569;28;19959;-78
2023/01/28 06:24:20;;;;;;;;;;;;;;;;;;5079338;28;19975;-77
2023/01/28 06:26:46;;;;;;;;;;;;;;;;;;5079573;28;20005;-77
2023/01/28 06:29:12;;;;;;;;;;;;;;;;;;5079185;28;19908;-78
2023/01/28 06:31:38;;;;;;;;;;;;;;;;;;5079454;28;20277;-78
2023/01/28 06:34:03;;;;;;;;;;;;;;;;;;5081024;28;19909;-76
2023/01/28 06:36:29;;;;;;;;;;;;;;;;;;5080044;28;19954;-78
2023/01/28 06:38:56;;;;;;;;;;;;;;;;;;5079189;28;19916;-77
2023/01/28 06:41:22;;;;;;;;;;;;;;;;;;5079940;28;19909;-76
2023/01/28 06:43:48;;;;;;;;;;;;;;;;;;5079659;28;20270;-76
2023/01/28 06:46:13;;;;;;;;;;;;;;;;;;5078855;28;19912;-77
2023/01/28 06:48:39;;;;;;;;;;;;;;;;;;5079740;28;19908;-78
2023/01/28 06:51:05;;;;;;;;;;;;;;;;;;5078380;28;19913;-80
2023/01/28 06:53:31;;;;;;;;;;;;;;;;;;5080602;28;20289;-77
2023/01/28 06:55:57;;;;;;;;;;;;;;;;;;5076617;28;19962;-78
2023/01/28 06:58:23;;;;;;;;;;;;;;;;;;5078298;28;19909;-78
2023/01/28 07:00:49;;;;;;;;;;;;;;;;;;5079227;28;19932;-76
2023/01/28 07:03:15;;;;;;;;;;;;;;;;;;5079064;28;19908;-76
2023/01/28 07:05:41;;;;;;;;;;;;;;;;;;5079975;28;19909;-76
2023/01/28 07:08:07;;;;;;;;;;;;;;;;;;5078719;28;20007;-76
2023/01/28 07:10:32;;;;;;;;;;;;;;;;;;5079375;28;19908;-77
2023/01/28 07:12:58;;;;;;;;;;;;;;;;;;5078488;28;19909;-77
2023/01/28 07:15:24;;;;;;;;;;;;;;;;;;5079711;28;19996;-76
2023/01/28 07:17:50;;;;;;;;;;;;;;;;;;5078588;28;19955;-76
2023/01/28 07:20:16;;;;;;;;;;;;;;;;;;5079498;28;19975;-79
2023/01/28 07:22:42;;;;;;;;;;;;;;;;;;5080991;28;19915;-78
2023/01/28 07:25:08;;;;;;;;;;;;;;;;;;5081013;28;19976;-78
2023/01/28 07:27:34;;;;;;;;;;;;;;;;;;5081561;28;19916;-75
2023/01/28 07:30:00;;;;;;;;;;;;;;;;;;5080032;28;19913;-79
2023/01/28 07:32:26;;;;;;;;;;;;;;;;;;5080487;28;19920;-76
2023/01/28 07:34:52;;;;;;;;;;;;;;;;;;5080590;28;20388;-78
2023/01/28 07:37:18;;;;;;;;;;;;;;;;;;5081383;28;19908;-77
2023/01/28 07:39:44;;;;;;;;;;;;;;;;;;5079847;28;19908;-77
2023/01/28 07:42:09;;;;;;;;;;;;;;;;;;5081422;28;19908;-78
2023/01/28 07:44:36;;;;;;;;;;;;;;;;;;5084460;28;19908;-77
2023/01/28 07:47:02;;;;;;;;;;;;;;;;;;5085095;28;19920;-77
2023/01/28 07:49:28;;;;;;;;;;;;;;;;;;5084274;28;19908;-77
2023/01/28 07:51:54;;;;;;;;;;;;;;;;;;5083978;28;20420;-76
2023/01/28 07:54:19;;;;;;;;;;;;;;;;;;5085511;28;19908;-78
2023/01/28 07:56:45;;;;;;;;;;;;;;;;;;5083615;28;19912;-78
2023/01/28 07:59:11;;;;;;;;;;;;;;;;;;5085274;28;19912;-78
2023/01/28 08:01:37;;;;;;;;;;;;;;;;;;5083679;28;20319;-79
2023/01/28 08:04:03;;;;;;;;;;;;;;;;;;5084316;28;19908;-77
2023/01/28 08:06:29;;;;;;;;;;;;;;;;;;5082890;28;19917;-78
2023/01/28 08:08:55;;;;;;;;;;;;;;;;;;5083996;28;19909;-77
2023/01/28 08:11:22;;;;;;;;;;;;;;;;;;5082800;28;19915;-77
2023/01/28 08:13:48;;;;;;;;;;;;;;;;;;5082174;28;19912;-77
2023/01/28 08:16:13;;;;;;;;;;;;;;;;;;5083140;28;19915;-77
2023/01/28 08:18:39;;;;;;;;;;;;;;;;;;5082437;28;19935;-78
2023/01/28 08:21:05;;;;;;;;;;;;;;;;;;5081836;28;19972;-77
2023/01/28 08:23:33;;;;;;;;;;;;;;;;;;5077937;28;19912;-77
2023/01/28 08:25:59;;;;;;;;;;;;;;;;;;5075843;28;19909;-77
2023/01/28 08:28:25;;;;;;;;;;;;;;;;;;5078161;28;19935;-77
2023/01/28 08:30:51;;;;;;;;;;;;;;;;;;5078940;28;19915;-76
2023/01/28 08:33:16;;;;;;;;;;;;;;;;;;5080719;28;19944;-78
2023/01/28 08:35:42;;;;;;;;;;;;;;;;;;5080898;28;20352;-78
2023/01/28 08:38:08;;;;;;;;;;;;;;;;;;5082536;28;19931;-78
2023/01/28 08:40:34;;;;;;;;;;;;;;;;;;5079624;28;19908;-80
2023/01/28 08:43:00;;;;;;;;;;;;;;;;;;5078250;28;19916;-78
2023/01/28 08:45:26;;;;;;;;;;;;;;;;;;5078615;28;19916;-78
2023/01/28 08:47:52;;;;;;;;;;;;;;;;;;5079652;28;19916;-77
2023/01/28 08:50:18;;;;;;;;;;;;;;;;;;5077990;28;19923;-77
2023/01/28 08:52:44;;;;;;;;;;;;;;;;;;5079498;28;19909;-76
2023/01/28 08:55:10;;;;;;;;;;;;;;;;;;5079613;28;19908;-77
2023/01/28 08:57:36;;;;;;;;;;;;;;;;;;5077806;28;19920;-76
2023/01/28 09:00:02;;;;;;;;;;;;;;;;;;5092534;22;20393;-82
2023/01/28 09:02:28;;;;;;;;;;;;;;;;;;5071993;28;19958;-79
2023/01/28 09:04:54;;;;;;;;;;;;;;;;;;5071836;28;20389;-78
2023/01/28 09:07:20;;;;;;;;;;;;;;;;;;5071657;28;19949;-82
2023/01/28 09:09:46;;;;;;;;;;;;;;;;;;5056446;28;19955;-79
2023/01/28 09:12:12;;;;;;;;;;;;;;;;;;5054471;28;20203;-83
2023/01/28 09:14:38;;;;;;;;;;;;;;;;;;5054372;28;19909;-79
2023/01/28 09:17:04;;;;;;;;;;;;;;;;;;5054795;28;19912;-81
2023/01/28 09:19:30;;;;;;;;;;;;;;;;;;5053984;28;19908;-80
2023/01/28 09:21:55;;;;;;;;;;;;;;;;;;5054910;28;19909;-81
2023/01/28 09:24:21;;;;;;;;;;;;;;;;;;5054371;28;20383;-81
2023/01/28 09:26:47;;;;;;;;;;;;;;;;;;5055827;28;19936;-81
2023/01/28 09:36:53;;;;;;;;;;;;;;;;;;5466598;22;19925;-80
2023/01/28 09:39:19;;;;;;;;;;;;;;;;;;5097145;28;19921;-81
2023/01/28 09:41:44;;;;;;;;;;;;;;;;;;5097039;28;19972;-81
2023/01/28 09:44:10;;;;;;;;;;;;;;;;;;5090463;28;19896;-79
2023/01/28 09:46:36;;;;;;;;;;;;;;;;;;5074590;28;19920;-79
2023/01/28 09:49:03;;;;;;;;;;;;;;;;;;5077134;28;20330;-80
2023/01/28 09:51:29;;;;;;;;;;;;;;;;;;5079280;28;19930;-79
2023/01/28 09:53:55;;;;;;;;;;;;;;;;;;5080477;28;20292;-79
2023/01/28 09:56:24;;;;;;;;;;;;;;;;;;5079047;28;19916;-80
2023/01/28 09:58:50;;;;;;;;;;;;;;;;;;5075543;28;19908;-80
2023/01/28 10:01:16;;;;;;;;;;;;;;;;;;5075686;28;20021;-79
2023/01/28 10:03:42;;;;;;;;;;;;;;;;;;5075347;28;19908;-80
2023/01/28 10:06:07;;;;;;;;;;;;;;;;;;5074612;28;19919;-80
2023/01/28 10:08:33;;;;;;;;;;;;;;;;;;5075946;28;19912;-80
2023/01/28 10:11:01;;;;;;;;;;;;;;;;;;5076023;28;19908;-80
2023/01/28 10:13:27;;;;;;;;;;;;;;;;;;5075708;28;19912;-80
2023/01/28 10:15:53;;;;;;;;;;;;;;;;;;5074159;28;19909;-80
2023/01/28 10:18:19;;;;;;;;;;;;;;;;;;5074799;28;19908;-80
2023/01/28 10:20:46;;;;;;;;;;;;;;;;;;5074831;28;20325;-80
2023/01/28 10:23:12;;;;;;;;;;;;;;;;;;5075118;28;19958;-80
2023/01/28 10:25:39;;;;;;;;;;;;;;;;;;5074130;28;19908;-80
2023/01/28 10:28:04;;;;;;;;;;;;;;;;;;5075570;28;20034;-80
2023/01/28 10:30:30;;;;;;;;;;;;;;;;;;5074927;28;19948;-81
2023/01/28 10:32:56;;;;;;;;;;;;;;;;;;5081083;28;20008;-80
2023/01/28 10:35:23;;;;;;;;;;;;;;;;;;5074323;28;19962;-80
2023/01/28 10:37:48;;;;;;;;;;;;;;;;;;5075603;28;19921;-80
2023/01/28 10:40:14;;;;;;;;;;;;;;;;;;5075504;28;19931;-81
2023/01/28 10:42:40;;;;;;;;;;;;;;;;;;5075695;28;19908;-80
2023/01/28 10:45:06;;;;;;;;;;;;;;;;;;5073436;28;19908;-80
2023/01/28 10:47:32;;;;;;;;;;;;;;;;;;5071625;28;19919;-80
2023/01/28 10:50:01;;;;;;;;;;;;;;;;;;5072510;28;19916;-80
2023/01/28 10:52:27;;;;;;;;;;;;;;;;;;5072636;28;19918;-80
2023/01/28 10:54:53;;;;;;;;;;;;;;;;;;5072559;28;20212;-80
2023/01/28 10:57:19;;;;;;;;;;;;;;;;;;5072167;28;19915;-80
2023/01/28 10:59:45;;;;;;;;;;;;;;;;;;5072347;28;19915;-80
2023/01/28 11:02:11;;;;;;;;;;;;;;;;;;5072812;28;19915;-80
2023/01/28 11:04:36;;;;;;;;;;;;;;;;;;5073875;28;19908;-80
2023/01/28 11:07:02;;;;;;;;;;;;;;;;;;5072731;28;19916;-80
2023/01/28 11:09:29;;;;;;;;;;;;;;;;;;5071698;28;19909;-80
2023/01/28 11:11:55;;;;;;;;;;;;;;;;;;5072878;28;19916;-80
2023/01/28 11:14:21;;;;;;;;;;;;;;;;;;5072815;28;19909;-80
2023/01/28 11:16:47;;;;;;;;;;;;;;;;;;5075998;28;19908;-80
2023/01/28 11:19:13;;;;;;;;;;;;;;;;;;5076351;28;19931;-80
2023/01/28 11:21:39;;;;;;;;;;;;;;;;;;5076868;28;19908;-80
2023/01/28 11:24:05;;;;;;;;;;;;;;;;;;5077189;28;20272;-80
2023/01/28 11:26:31;;;;;;;;;;;;;;;;;;5078114;28;19909;-80
2023/01/28 11:28:57;;;;;;;;;;;;;;;;;;5077535;28;19922;-80
2023/01/28 11:31:23;;;;;;;;;;;;;;;;;;5077765;28;19936;-80
2023/01/28 11:33:49;;;;;;;;;;;;;;;;;;5076490;28;20321;-80
2023/01/28 11:36:15;;;;;;;;;;;;;;;;;;5077073;28;19908;-80
2023/01/28 11:38:41;;;;;;;;;;;;;;;;;;5077021;28;20307;-80
2023/01/28 11:41:07;;;;;;;;;;;;;;;;;;5077675;28;19915;-80
2023/01/28 11:43:33;;;;;;;;;;;;;;;;;;5077040;28;19916;-80
2023/01/28 11:45:58;;;;;;;;;;;;;;;;;;5077065;28;19932;-80
2023/01/28 11:48:24;;;;;;;;;;;;;;;;;;5076486;28;20284;-81
2023/01/28 11:50:50;;;;;;;;;;;;;;;;;;5076435;28;20014;-80
2023/01/28 11:53:16;;;;;;;;;;;;;;;;;;5076167;28;19919;-80
2023/01/28 11:55:42;;;;;;;;;;;;;;;;;;5076304;28;19943;-80
2023/01/28 11:58:08;;;;;;;;;;;;;;;;;;5076420;28;19952;-80
2023/01/28 12:00:34;;;;;;;;;;;;;;;;;;5076936;28;19915;-80
2023/01/28 12:03:00;;;;;;;;;;;;;;;;;;5077095;28;19963;-80
2023/01/28 12:05:26;;;;;;;;;;;;;;;;;;5078515;28;20032;-80
2023/01/28 12:07:52;;;;;;;;;;;;;;;;;;5076443;28;20377;-80
2023/01/28 12:10:18;;;;;;;;;;;;;;;;;;5076364;28;19918;-80
2023/01/28 12:12:44;;;;;;;;;;;;;;;;;;5077078;28;20001;-80
2023/01/28 12:15:10;;;;;;;;;;;;;;;;;;5077519;28;19908;-79
2023/01/28 12:17:36;;;;;;;;;;;;;;;;;;5075948;28;19927;-80
2023/01/28 12:20:02;;;;;;;;;;;;;;;;;;5076601;28;19931;-80
2023/01/28 12:22:27;;;;;;;;;;;;;;;;;;5078022;28;19965;-80
2023/01/28 12:24:53;;;;;;;;;;;;;;;;;;5076844;28;19908;-81
2023/01/28 12:27:19;;;;;;;;;;;;;;;;;;5076549;28;19920;-80
2023/01/28 12:29:46;;;;;;;;;;;;;;;;;;5077842;28;20395;-80
2023/01/28 12:32:12;;;;;;;;;;;;;;;;;;5075959;28;19951;-80
2023/01/28 12:34:38;;;;;;;;;;;;;;;;;;5076870;28;20046;-80
2023/01/28 12:37:04;;;;;;;;;;;;;;;;;;5076895;28;20193;-81
2023/01/28 12:39:30;;;;;;;;;;;;;;;;;;5076340;28;20116;-80
2023/01/28 12:41:56;;;;;;;;;;;;;;;;;;5078145;28;20369;-80
2023/01/28 12:44:22;;;;;;;;;;;;;;;;;;5076741;28;19966;-80
2023/01/28 12:46:48;;;;;;;;;;;;;;;;;;5076394;28;19916;-80
2023/01/28 12:49:14;;;;;;;;;;;;;;;;;;5075694;28;20373;-80
2023/01/28 12:51:40;;;;;;;;;;;;;;;;;;5075882;28;19908;-80
2023/01/28 12:54:06;;;;;;;;;;;;;;;;;;5076554;28;19904;-80
2023/01/28 12:56:32;;;;;;;;;;;;;;;;;;5076809;28;19916;-80
2023/01/28 12:58:58;;;;;;;;;;;;;;;;;;5076251;28;19931;-80
2023/01/28 13:01:24;;;;;;;;;;;;;;;;;;5076906;28;20369;-80
2023/01/28 13:03:50;;;;;;;;;;;;;;;;;;5078099;28;19912;-80
2023/01/28 13:06:16;;;;;;;;;;;;;;;;;;5077565;28;19908;-80
2023/01/28 13:08:42;;;;;;;;;;;;;;;;;;5077604;28;19947;-80
2023/01/28 13:11:08;;;;;;;;;;;;;;;;;;5077304;28;19962;-80
2023/01/28 13:13:34;;;;;;;;;;;;;;;;;;5077243;28;20324;-81
2023/01/28 13:16:00;;;;;;;;;;;;;;;;;;5076686;28;19909;-80
2023/01/28 13:18:26;;;;;;;;;;;;;;;;;;5077221;28;19909;-80
2023/01/28 13:20:52;;;;;;;;;;;;;;;;;;5076420;28;19912;-80
2023/01/28 13:23:18;;;;;;;;;;;;;;;;;;5077558;28;19943;-80
2023/01/28 13:25:43;;;;;;;;;;;;;;;;;;5075806;28;19909;-80
2023/01/28 13:28:09;;;;;;;;;;;;;;;;;;5078495;28;19912;-80
2023/01/28 13:30:35;;;;;;;;;;;;;;;;;;5077811;28;20308;-80
2023/01/28 13:33:01;;;;;;;;;;;;;;;;;;5076102;28;19908;-80
2023/01/28 13:35:27;;;;;;;;;;;;;;;;;;5076816;28;19912;-80
2023/01/28 13:37:53;;;;;;;;;;;;;;;;;;5077503;28;19924;-80
2023/01/28 13:40:19;;;;;;;;;;;;;;;;;;5075415;28;19970;-80
2023/01/28 13:42:45;;;;;;;;;;;;;;;;;;5076374;28;19908;-80
2023/01/28 13:45:11;;;;;;;;;;;;;;;;;;5075906;28;19909;-81
2023/01/28 13:47:37;;;;;;;;;;;;;;;;;;5075645;28;20276;-80
2023/01/28 13:50:03;;;;;;;;;;;;;;;;;;5076125;28;19908;-80
2023/01/28 13:52:29;;;;;;;;;;;;;;;;;;5076303;28;19912;-80
2023/01/28 13:54:55;;;;;;;;;;;;;;;;;;5076373;28;19908;-80
2023/01/28 13:57:20;;;;;;;;;;;;;;;;;;5075505;28;20388;-80
2023/01/28 13:59:46;;;;;;;;;;;;;;;;;;5075660;28;19908;-80
2023/01/28 14:02:12;;;;;;;;;;;;;;;;;;5076245;28;19909;-80
2023/01/28 14:04:38;;;;;;;;;;;;;;;;;;5075629;28;19913;-80
2023/01/28 14:07:04;;;;;;;;;;;;;;;;;;5076039;28;19912;-80
2023/01/28 14:09:30;;;;;;;;;;;;;;;;;;5075261;28;19916;-80
2023/01/28 14:11:56;;;;;;;;;;;;;;;;;;5074449;28;20292;-80
2023/01/28 14:14:22;;;;;;;;;;;;;;;;;;5074591;28;19915;-80
2023/01/28 14:16:51;;;;;;;;;;;;;;;;;;5074495;28;19912;-80
2023/01/28 14:19:17;;;;;;;;;;;;;;;;;;5074462;28;20391;-81
2023/01/28 14:21:43;;;;;;;;;;;;;;;;;;5074601;28;20003;-80
2023/01/28 14:24:09;;;;;;;;;;;;;;;;;;5074860;28;20361;-80
2023/01/28 14:26:34;;;;;;;;;;;;;;;;;;5074242;28;19970;-80
2023/01/28 14:29:00;;;;;;;;;;;;;;;;;;5074726;28;19954;-80
2023/01/28 14:31:26;;;;;;;;;;;;;;;;;;5074684;28;19908;-80
2023/01/28 14:33:52;;;;;;;;;;;;;;;;;;5073216;28;19916;-80
2023/01/28 14:36:18;;;;;;;;;;;;;;;;;;5074299;28;19912;-80
2023/01/28 14:38:44;;;;;;;;;;;;;;;;;;5074283;28;19923;-80
2023/01/28 14:41:10;;;;;;;;;;;;;;;;;;5074424;28;20296;-80
2023/01/28 14:43:36;;;;;;;;;;;;;;;;;;5074499;28;19909;-80
2023/01/28 14:46:02;;;;;;;;;;;;;;;;;;5074146;28;19908;-80
2023/01/28 14:48:28;;;;;;;;;;;;;;;;;;5076327;28;20023;-82
2023/01/28 14:50:54;;;;;;;;;;;;;;;;;;5078741;28;19915;-81
2023/01/28 14:53:20;;;;;;;;;;;;;;;;;;5075998;28;20000;-81
2023/01/28 14:55:46;;;;;;;;;;;;;;;;;;5081416;28;19909;-80
2023/01/28 14:58:12;;;;;;;;;;;;;;;;;;5079692;28;19909;-81
2023/01/28 15:00:38;;;;;;;;;;;;;;;;;;5081070;28;20315;-81
2023/01/28 15:03:05;;;;;;;;;;;;;;;;;;5081065;28;19979;-81
2023/01/28 15:05:31;;;;;;;;;;;;;;;;;;5078024;28;19912;-80
2023/01/28 15:07:57;;;;;;;;;;;;;;;;;;5075197;28;19916;-80
2023/01/28 15:10:23;;;;;;;;;;;;;;;;;;5075381;28;19908;-81
2023/01/28 15:12:49;;;;;;;;;;;;;;;;;;5078558;28;19909;-81
2023/01/28 15:15:15;;;;;;;;;;;;;;;;;;5075913;28;19908;-80
2023/01/28 15:17:41;;;;;;;;;;;;;;;;;;5074985;28;19909;-80
2023/01/28 15:20:07;;;;;;;;;;;;;;;;;;5074486;28;19909;-81
2023/01/28 15:22:33;;;;;;;;;;;;;;;;;;5075305;28;19995;-80
2023/01/28 15:24:59;;;;;;;;;;;;;;;;;;5076342;28;19975;-81
2023/01/28 15:27:25;;;;;;;;;;;;;;;;;;5076632;28;19913;-80
2023/01/28 15:29:51;;;;;;;;;;;;;;;;;;5076218;28;19908;-80
2023/01/28 15:32:16;;;;;;;;;;;;;;;;;;5074918;28;19914;-80
2023/01/28 15:34:42;;;;;;;;;;;;;;;;;;5075482;28;19955;-80
2023/01/28 15:37:08;;;;;;;;;;;;;;;;;;5075017;28;20041;-80
2023/01/28 15:39:34;;;;;;;;;;;;;;;;;;5073995;28;20031;-80
2023/01/28 15:42:00;;;;;;;;;;;;;;;;;;5073146;28;19981;-80
2023/01/28 15:44:28;;;;;;;;;;;;;;;;;;5074086;28;19912;-80
2023/01/28 15:46:53;;;;;;;;;;;;;;;;;;5073819;28;19912;-80
2023/01/28 15:49:19;;;;;;;;;;;;;;;;;;5074236;28;19970;-81
2023/01/28 15:51:45;;;;;;;;;;;;;;;;;;5074991;28;19908;-80
2023/01/28 15:54:11;;;;;;;;;;;;;;;;;;5075020;28;19912;-81
2023/01/28 15:56:37;;;;;;;;;;;;;;;;;;5075286;28;19916;-80
2023/01/28 15:59:03;;;;;;;;;;;;;;;;;;5075100;28;19954;-80
2023/01/28 16:01:29;;;;;;;;;;;;;;;;;;5075467;28;19940;-80
2023/01/28 16:03:55;;;;;;;;;;;;;;;;;;5077630;28;19928;-81
2023/01/28 16:06:21;;;;;;;;;;;;;;;;;;5078748;28;20007;-80
2023/01/28 16:08:47;;;;;;;;;;;;;;;;;;5078433;28;19912;-81
2023/01/28 16:11:13;;;;;;;;;;;;;;;;;;5077847;28;19959;-80
2023/01/28 16:13:39;;;;;;;;;;;;;;;;;;5078851;28;19912;-81
2023/01/28 16:16:05;;;;;;;;;;;;;;;;;;5077646;28;19908;-81
2023/01/28 16:18:31;;;;;;;;;;;;;;;;;;5077922;28;19909;-81
2023/01/28 16:20:57;;;;;;;;;;;;;;;;;;5078552;28;19916;-81
2023/01/28 16:23:23;;;;;;;;;;;;;;;;;;5078519;28;20058;-81
2023/01/28 16:25:49;;;;;;;;;;;;;;;;;;5078602;28;19916;-81
2023/01/28 16:28:15;;;;;;;;;;;;;;;;;;5078459;28;19920;-80
2023/01/28 16:30:41;;;;;;;;;;;;;;;;;;5345134;22;20634;-80
2023/01/28 16:33:07;;;;;;;;;;;;;;;;;;5086569;28;19923;-81
2023/01/28 16:35:33;;;;;;;;;;;;;;;;;;5086202;28;20411;-80
2023/01/28 16:37:59;;;;;;;;;;;;;;;;;;5079069;28;19909;-80
2023/01/28 16:40:25;;;;;;;;;;;;;;;;;;5078766;28;19913;-79
2023/01/28 16:42:51;;;;;;;;;;;;;;;;;;5078770;28;19918;-80
2023/01/28 16:45:17;;;;;;;;;;;;;;;;;;5078485;28;19915;-80
2023/01/28 16:47:43;;;;;;;;;;;;;;;;;;5205651;22;19925;-80
2023/01/28 16:50:09;;;;;;;;;;;;;;;;;;5076815;28;19909;-80
2023/01/28 16:52:35;;;;;;;;;;;;;;;;;;5078214;28;19908;-80
2023/01/28 16:55:01;;;;;;;;;;;;;;;;;;5083032;28;20440;-80
2023/01/28 16:57:26;;;;;;;;;;;;;;;;;;5076574;28;19953;-80
2023/01/28 16:59:52;;;;;;;;;;;;;;;;;;5076849;28;19996;-80
2023/01/28 17:02:18;;;;;;;;;;;;;;;;;;5074599;28;20007;-80
2023/01/28 17:04:44;;;;;;;;;;;;;;;;;;5075323;28;19912;-80
2023/01/28 17:07:10;;;;;;;;;;;;;;;;;;5074076;28;19939;-79
2023/01/28 17:09:36;;;;;;;;;;;;;;;;;;5073027;28;19954;-78
2023/01/28 17:12:02;;;;;;;;;;;;;;;;;;5075006;28;20373;-80
2023/01/28 17:14:30;;;;;;;;;;;;;;;;;;5077124;28;19931;-80
2023/01/28 17:16:56;;;;;;;;;;;;;;;;;;5075776;28;19934;-80
2023/01/28 17:19:22;;;;;;;;;;;;;;;;;;5074917;28;19912;-80